createdAt,value
2022-09-04T00:01:32.420Z,35.75
2022-09-04T00:04:02.099Z,36.00
2022-09-04T00:06:35.781Z,36.25
2022-09-04T00:09:12.339Z,34.00
2022-09-04T00:11:47.789Z,33.00
2022-09-04T00:14:24.893Z,36.50
2022-09-04T00:17:05.288Z,35.00
2022-09-04T00:19:55.331Z,33.50
2022-09-04T00:22:35.683Z,37.25
2022-09-04T00:25:25.376Z,34.25
2022-09-04T00:28:13.349Z,34.00
2022-09-04T00:30:48.337Z,29.50
2022-09-04T00:33:24.765Z,31.50
2022-09-04T00:36:00.532Z,29.25
2022-09-04T00:38:36.497Z,29.25
2022-09-04T00:41:13.826Z,30.25
2022-09-04T00:43:49.853Z,30.50
2022-09-04T00:46:31.735Z,31.00
2022-09-04T00:49:01.512Z,30.00
2022-09-04T00:51:32.150Z,31.00
2022-09-04T00:54:16.431Z,31.75
2022-09-04T00:56:54.939Z,31.00
2022-09-04T00:59:45.337Z,29.75
2022-09-04T01:02:26.638Z,31.00
2022-09-04T01:04:56.504Z,30.75
2022-09-04T01:07:25.760Z,32.50
2022-09-04T01:10:10.278Z,32.50
2022-09-04T01:12:43.141Z,32.25
2022-09-04T01:15:31.059Z,32.00
2022-09-04T01:18:18.877Z,33.50
2022-09-04T01:21:11.623Z,33.00
2022-09-04T01:24:01.944Z,32.50
2022-09-04T01:27:00.229Z,33.00
2022-09-04T01:29:41.165Z,32.00
2022-09-04T01:32:46.125Z,31.25
2022-09-04T01:35:25.066Z,32.00
2022-09-04T01:37:54.822Z,30.00
2022-09-04T01:40:36.463Z,32.00
2022-09-04T01:43:08.790Z,33.00
2022-09-04T01:46:06.397Z,32.75
2022-09-04T01:48:44.407Z,31.75
2022-09-04T01:51:30.296Z,35.25
2022-09-04T01:54:20.069Z,32.00
2022-09-04T01:57:10.278Z,34.50
2022-09-04T01:59:53.009Z,33.50
2022-09-04T02:02:45.370Z,32.00
2022-09-04T02:05:45.585Z,32.75
2022-09-04T02:08:27.184Z,34.00
2022-09-04T02:10:57.617Z,34.25
2022-09-04T02:13:47.290Z,33.00
2022-09-04T02:16:23.469Z,34.00
2022-09-04T02:18:52.996Z,34.00
2022-09-04T02:21:29.517Z,35.75
2022-09-04T02:23:58.800Z,37.75
2022-09-04T02:26:32.223Z,36.25
2022-09-04T02:29:16.676Z,42.00
2022-09-04T02:31:46.079Z,38.00
2022-09-04T02:34:24.974Z,41.00
2022-09-04T02:37:06.316Z,38.00
2022-09-04T02:39:59.736Z,38.00
2022-09-04T02:42:29.474Z,42.50
2022-09-04T02:45:07.924Z,38.75
2022-09-04T02:47:55.594Z,40.00
2022-09-04T02:50:42.975Z,43.50
2022-09-04T02:53:26.310Z,39.25
2022-09-04T02:55:58.986Z,42.25
2022-09-04T02:58:31.407Z,40.50
2022-09-04T03:01:12.025Z,44.00
2022-09-04T03:03:44.305Z,42.25
2022-09-04T03:06:16.001Z,42.00
2022-09-04T03:08:48.930Z,41.00
2022-09-04T03:11:34.795Z,42.25
2022-09-04T03:14:11.241Z,42.00
2022-09-04T03:16:43.502Z,42.25
2022-09-04T03:19:13.303Z,39.25
2022-09-04T03:21:49.334Z,42.00
2022-09-04T03:24:31.320Z,41.00
2022-09-04T03:27:07.496Z,43.50
2022-09-04T03:29:38.316Z,44.25
2022-09-04T03:32:16.105Z,41.75
2022-09-04T03:34:46.217Z,42.00
2022-09-04T03:37:35.477Z,42.25
2022-09-04T03:40:20.105Z,41.25
2022-09-04T03:42:58.138Z,45.00
2022-09-04T03:45:36.181Z,44.25
2022-09-04T03:48:18.879Z,44.50
2022-09-04T03:50:57.849Z,43.50
2022-09-04T03:53:36.099Z,42.25
2022-09-04T03:56:11.826Z,39.75
2022-09-04T03:58:47.142Z,42.00
2022-09-04T04:01:24.190Z,40.00
2022-09-04T04:03:54.511Z,39.00
2022-09-04T04:06:43.960Z,40.00
2022-09-04T04:09:25.481Z,37.75
2022-09-04T04:11:57.725Z,37.75
2022-09-04T04:15:00.703Z,41.75
2022-09-04T04:17:32.160Z,44.25
2022-09-04T04:20:07.801Z,41.50
2022-09-04T04:22:52.801Z,40.25
2022-09-04T04:25:28.656Z,42.00
2022-09-04T04:28:19.119Z,41.00
2022-09-04T04:30:56.503Z,43.25
2022-09-04T04:33:33.990Z,41.75
2022-09-04T04:36:06.604Z,42.00
2022-09-04T04:38:49.085Z,43.75
2022-09-04T04:41:57.762Z,48.25
2022-09-04T04:45:05.092Z,44.75
2022-09-04T04:47:36.817Z,44.00
2022-09-04T04:50:15.665Z,44.50
2022-09-04T04:53:01.091Z,41.75
2022-09-04T04:55:41.500Z,45.50
2022-09-04T04:58:28.958Z,46.50
2022-09-04T05:01:21.213Z,42.50
2022-09-04T05:04:01.922Z,42.25
2022-09-04T05:06:43.538Z,42.75
2022-09-04T05:09:19.139Z,44.75
2022-09-04T05:11:49.264Z,43.50
2022-09-04T05:14:26.670Z,44.25
2022-09-04T05:16:59.733Z,44.50
2022-09-04T05:19:41.340Z,42.25
2022-09-04T05:22:16.103Z,42.75
2022-09-04T05:25:04.014Z,39.50
2022-09-04T05:27:46.537Z,46.00
2022-09-04T05:30:25.113Z,46.75
2022-09-04T05:33:03.960Z,42.25
2022-09-04T05:35:36.466Z,47.25
2022-09-04T05:38:13.293Z,46.25
2022-09-04T05:40:52.372Z,44.25
2022-09-04T05:43:36.747Z,48.00
2022-09-04T05:46:24.376Z,46.00
2022-09-04T05:49:00.556Z,46.00
2022-09-04T05:51:43.020Z,47.50
2022-09-04T05:54:19.467Z,45.75
2022-09-04T05:56:58.439Z,49.25
2022-09-04T05:59:29.601Z,50.25
2022-09-04T06:02:00.369Z,50.75
2022-09-04T06:04:40.244Z,54.75
2022-09-04T06:07:16.079Z,50.50
2022-09-04T06:10:13.379Z,54.00
2022-09-04T06:12:49.091Z,52.00
2022-09-04T06:15:37.639Z,52.00
2022-09-04T06:18:07.501Z,56.25
2022-09-04T06:20:40.162Z,55.00
2022-09-04T06:23:21.738Z,56.25
2022-09-04T06:26:01.791Z,55.25
2022-09-04T06:28:43.450Z,56.50
2022-09-04T06:31:12.823Z,54.00
2022-09-04T06:33:51.109Z,54.25
2022-09-04T06:36:54.983Z,58.00
2022-09-04T06:39:27.617Z,55.25
2022-09-04T06:42:19.656Z,54.50
2022-09-04T06:44:49.829Z,56.50
2022-09-04T06:47:29.405Z,60.67
2022-09-04T06:50:18.998Z,62.33
2022-09-04T06:53:01.010Z,60.67
2022-09-04T06:55:51.899Z,59.33
2022-09-04T06:58:25.166Z,56.75
2022-09-04T07:00:56.549Z,56.00
2022-09-04T07:03:45.434Z,54.75
2022-09-04T07:06:14.983Z,54.50
2022-09-04T07:08:59.455Z,51.25
2022-09-04T07:11:45.214Z,50.00
2022-09-04T07:14:21.565Z,48.25
2022-09-04T07:16:54.225Z,51.25
2022-09-04T07:19:26.882Z,52.50
2022-09-04T07:22:17.809Z,54.75
2022-09-04T07:25:06.058Z,54.75
2022-09-04T07:27:37.437Z,56.25
2022-09-04T07:30:10.892Z,54.25
2022-09-04T07:32:46.962Z,54.00
2022-09-04T07:35:35.020Z,55.00
2022-09-04T07:38:11.316Z,51.00
2022-09-04T07:40:44.039Z,53.25
2022-09-04T07:43:13.823Z,50.75
2022-09-04T07:45:53.095Z,50.00
2022-09-04T07:48:31.789Z,50.00
2022-09-04T07:51:12.020Z,51.25
2022-09-04T07:54:00.105Z,48.00
2022-09-04T07:56:50.840Z,48.75
2022-09-04T07:59:38.777Z,49.50
2022-09-04T08:02:25.067Z,47.50
2022-09-04T08:05:07.185Z,47.75
2022-09-04T08:07:36.697Z,42.75
2022-09-04T08:10:24.479Z,45.75
2022-09-04T08:13:11.219Z,47.75
2022-09-04T08:15:51.200Z,44.75
2022-09-04T08:18:24.118Z,45.50
2022-09-04T08:21:04.119Z,45.25
2022-09-04T08:23:53.966Z,42.50
2022-09-04T08:26:29.627Z,42.00
2022-09-04T08:29:10.358Z,42.75
2022-09-04T08:32:00.095Z,43.25
2022-09-04T08:34:29.999Z,44.00
2022-09-04T08:36:59.385Z,40.50
2022-09-04T08:39:31.915Z,40.25
2022-09-04T08:42:05.958Z,41.25
2022-09-04T08:44:51.883Z,40.50
2022-09-04T08:47:54.289Z,40.25
2022-09-04T08:50:31.258Z,39.25
2022-09-04T08:53:13.181Z,39.25
2022-09-04T08:55:45.702Z,40.00
2022-09-04T08:58:27.332Z,42.00
2022-09-04T09:01:15.989Z,38.75
2022-09-04T09:03:51.562Z,39.75
2022-09-04T09:06:39.282Z,36.00
2022-09-04T09:09:26.811Z,38.00
2022-09-04T09:12:14.849Z,39.50
2022-09-04T09:14:58.467Z,39.75
2022-09-04T09:17:38.664Z,40.00
2022-09-04T09:20:40.890Z,39.25
2022-09-04T09:23:18.316Z,39.75
2022-09-04T09:26:10.321Z,41.50
2022-09-04T09:28:43.108Z,38.00
2022-09-04T09:31:28.387Z,37.50
2022-09-04T09:34:16.430Z,39.25
2022-09-04T09:37:01.454Z,38.00
2022-09-04T09:39:36.823Z,38.50
2022-09-04T09:42:08.937Z,36.50
2022-09-04T09:44:50.505Z,35.50
2022-09-04T09:47:38.772Z,41.75
2022-09-04T09:50:22.663Z,39.25
2022-09-04T09:53:13.393Z,35.00
2022-09-04T09:55:43.145Z,39.00
2022-09-04T09:58:15.520Z,39.25
2022-09-04T10:01:10.808Z,38.75
2022-09-04T10:03:58.092Z,39.75
2022-09-04T10:06:40.873Z,39.25
2022-09-04T10:09:10.167Z,39.50
2022-09-04T10:11:42.647Z,37.50
2022-09-04T10:14:30.570Z,36.75
2022-09-04T10:17:16.161Z,37.50
2022-09-04T10:19:49.277Z,35.75
2022-09-04T10:22:37.260Z,39.25
2022-09-04T10:25:42.027Z,37.25
2022-09-04T10:28:23.640Z,36.00
2022-09-04T10:31:10.079Z,38.75
2022-09-04T10:33:58.438Z,38.25
2022-09-04T10:36:46.480Z,41.50
2022-09-04T10:39:43.000Z,42.00
2022-09-04T10:42:29.094Z,42.00
2022-09-04T10:45:12.575Z,41.50
2022-09-04T10:47:54.422Z,40.00
2022-09-04T10:50:37.334Z,40.25
2022-09-04T10:53:16.319Z,37.25
2022-09-04T10:55:53.799Z,33.50
2022-09-04T10:58:31.340Z,29.50
2022-09-04T11:01:31.381Z,29.00
2022-09-04T11:04:14.498Z,29.00
2022-09-04T11:06:59.851Z,28.50
2022-09-04T11:09:47.370Z,29.25
2022-09-04T11:12:31.563Z,27.75
2022-09-04T11:15:16.654Z,27.25
2022-09-04T11:17:56.732Z,27.00
2022-09-04T11:20:26.406Z,25.75
2022-09-04T11:23:11.151Z,26.25
2022-09-04T11:25:50.080Z,23.00
2022-09-04T11:28:24.781Z,23.25
2022-09-04T11:31:22.437Z,19.00
2022-09-04T11:34:09.496Z,19.25
2022-09-04T11:36:51.960Z,15.50
2022-09-04T11:39:35.993Z,12.50
2022-09-04T11:42:23.709Z,10.75
2022-09-04T11:45:07.398Z,10.75
2022-09-04T11:47:58.539Z,14.75
2022-09-04T11:50:40.285Z,15.75
2022-09-04T11:53:14.095Z,16.75
2022-09-04T11:55:55.784Z,16.50
2022-09-04T11:58:43.961Z,18.25
2022-09-04T12:01:31.937Z,18.00
2022-09-04T12:04:24.366Z,16.25
2022-09-04T12:06:56.441Z,14.50
2022-09-04T12:09:45.424Z,15.75
2022-09-04T12:12:33.439Z,14.25
2022-09-04T12:15:21.707Z,11.00
2022-09-04T12:17:57.750Z,10.50
2022-09-04T12:20:49.199Z,9.75
2022-09-04T12:23:33.983Z,8.50
2022-09-04T12:26:17.803Z,7.25
2022-09-04T12:29:05.667Z,9.25
2022-09-04T12:31:38.394Z,9.50
2022-09-04T12:34:10.918Z,7.50
2022-09-04T12:36:43.582Z,8.50
2022-09-04T12:39:19.224Z,8.00
2022-09-04T12:41:51.420Z,7.75
2022-09-04T12:44:39.603Z,8.00
2022-09-04T12:47:16.127Z,8.00
2022-09-04T12:50:01.390Z,8.50
2022-09-04T12:52:33.758Z,8.00
2022-09-04T12:55:24.664Z,6.00
2022-09-04T12:57:57.212Z,9.00
2022-09-04T13:00:40.827Z,7.25
2022-09-04T13:03:35.595Z,9.50
2022-09-04T13:06:05.708Z,7.25
2022-09-04T13:08:43.593Z,8.50
2022-09-04T13:11:27.058Z,7.25
2022-09-04T13:14:08.864Z,8.00
2022-09-04T13:16:41.103Z,7.25
2022-09-04T13:19:16.513Z,8.00
2022-09-04T13:21:51.774Z,7.00
2022-09-04T13:24:44.512Z,10.00
2022-09-04T13:27:28.068Z,8.00
2022-09-04T13:30:07.944Z,6.75
2022-09-04T13:32:38.110Z,8.25
2022-09-04T13:35:20.088Z,8.00
2022-09-04T13:37:50.548Z,8.00
2022-09-04T13:40:26.569Z,9.25
2022-09-04T13:43:06.793Z,9.00
2022-09-04T13:45:47.597Z,10.00
2022-09-04T13:48:38.980Z,9.75
2022-09-04T13:51:13.517Z,9.00
2022-09-04T13:53:59.585Z,9.50
2022-09-04T13:56:37.122Z,9.25
2022-09-04T13:59:11.257Z,7.75
2022-09-04T14:01:49.295Z,7.75
2022-09-04T14:04:40.648Z,7.25
2022-09-04T14:07:20.459Z,9.25
2022-09-04T14:09:52.074Z,10.25
2022-09-04T14:12:21.906Z,7.50
2022-09-04T14:15:09.012Z,7.00
2022-09-04T14:17:44.075Z,7.50
2022-09-04T14:20:22.214Z,9.50
2022-09-04T14:23:12.346Z,8.75
2022-09-04T14:25:45.248Z,9.00
2022-09-04T14:28:29.402Z,8.00
2022-09-04T14:31:18.276Z,9.00
2022-09-04T14:34:01.689Z,8.50
2022-09-04T14:36:51.187Z,8.00
2022-09-04T14:39:39.163Z,8.00
2022-09-04T14:42:14.990Z,7.25
2022-09-04T14:44:50.908Z,7.25
2022-09-04T14:47:45.580Z,8.25
2022-09-04T14:50:18.926Z,9.00
2022-09-04T14:53:15.160Z,7.75
2022-09-04T14:56:04.844Z,10.50
2022-09-04T14:58:53.621Z,8.75
2022-09-04T15:01:25.521Z,9.00
2022-09-04T15:04:07.881Z,8.00
2022-09-04T15:07:11.343Z,8.00
2022-09-04T15:09:47.926Z,7.75
2022-09-04T15:12:36.551Z,6.00
2022-09-04T15:15:06.987Z,7.50
2022-09-04T15:17:41.055Z,6.75
2022-09-04T15:20:17.170Z,9.00
2022-09-04T15:22:59.874Z,7.50
2022-09-04T15:25:57.390Z,9.00
2022-09-04T15:28:26.649Z,8.50
2022-09-04T15:31:15.266Z,8.00
2022-09-04T15:33:47.735Z,9.00
2022-09-04T15:36:21.732Z,6.75
2022-09-04T15:38:56.499Z,8.25
2022-09-04T15:41:36.195Z,7.25
2022-09-04T15:44:15.737Z,7.00
2022-09-04T15:46:45.926Z,8.75
2022-09-04T15:49:25.297Z,9.50
2022-09-04T15:52:19.309Z,8.00
2022-09-04T15:54:55.599Z,8.00
2022-09-04T15:57:57.934Z,7.25
2022-09-04T16:00:28.821Z,9.75
2022-09-04T16:03:04.649Z,8.00
2022-09-04T16:05:46.349Z,8.00
2022-09-04T16:08:22.521Z,6.25
2022-09-04T16:10:55.690Z,8.25
2022-09-04T16:13:31.854Z,7.75
2022-09-04T16:16:04.583Z,10.25
2022-09-04T16:18:42.100Z,8.25
2022-09-04T16:21:36.139Z,6.75
2022-09-04T16:24:18.278Z,9.50
2022-09-04T16:26:53.155Z,6.75
2022-09-04T16:29:37.854Z,6.75
2022-09-04T16:32:11.104Z,7.50
2022-09-04T16:34:48.432Z,9.25
2022-09-04T16:37:21.625Z,8.00
2022-09-04T16:40:13.362Z,7.25
2022-09-04T16:42:52.366Z,7.50
2022-09-04T16:45:24.292Z,7.50
2022-09-04T16:48:33.490Z,8.00
2022-09-04T16:51:40.207Z,7.75
2022-09-04T16:54:10.296Z,8.50
2022-09-04T16:56:41.961Z,9.00
2022-09-04T16:59:32.664Z,7.00
2022-09-04T17:02:04.118Z,5.50
2022-09-04T17:04:41.054Z,4.50
2022-09-04T17:07:10.945Z,5.50
2022-09-04T17:09:47.156Z,5.50
2022-09-04T17:12:22.627Z,5.00
2022-09-04T17:14:59.310Z,4.00
2022-09-04T17:17:32.152Z,4.50
2022-09-04T17:20:10.317Z,4.00
2022-09-04T17:26:26.804Z,3.50
2022-09-04T17:29:09.740Z,2.50
2022-09-04T17:29:34.894Z,4.25
2022-09-04T17:31:51.199Z,1.50
2022-09-04T17:40:32.087Z,2.75
2022-09-04T17:40:51.160Z,3.00
2022-09-04T17:41:32.470Z,2.00
2022-09-04T17:43:42.585Z,3.00
2022-09-04T17:46:17.549Z,2.00
2022-09-04T17:48:48.068Z,2.50
2022-09-04T17:51:25.807Z,2.00
2022-09-04T17:54:00.702Z,2.00
2022-09-04T17:56:54.152Z,2.00
2022-09-04T17:59:34.806Z,1.50
2022-09-04T18:02:40.075Z,2.50
2022-09-04T18:05:12.850Z,1.50
2022-09-04T18:08:08.326Z,1.00
2022-09-04T18:10:47.925Z,1.00
2022-09-04T18:13:37.381Z,1.00
2022-09-04T18:16:08.712Z,0.00
2022-09-04T18:18:38.130Z,0.50
2022-09-04T18:21:15.533Z,1.00
2022-09-04T18:23:51.988Z,1.00
2022-09-04T18:26:41.747Z,0.00
2022-09-04T18:31:00.356Z,1.00
2022-09-04T18:37:10.992Z,0.00
2022-09-04T18:37:20.965Z,0.75
2022-09-04T18:38:18.163Z,0.00
2022-09-04T18:41:58.954Z,0.00
2022-09-04T18:50:23.227Z,0.00
2022-09-04T18:50:28.114Z,0.00
2022-09-04T18:50:29.880Z,0.00
2022-09-04T18:52:31.959Z,0.00
2022-09-04T18:55:07.152Z,0.00
2022-09-04T18:57:48.631Z,0.00
2022-09-04T19:00:33.774Z,0.00
2022-09-04T19:03:16.032Z,0.00
2022-09-04T19:05:48.346Z,0.00
2022-09-04T19:08:25.890Z,0.00
2022-09-04T19:10:57.447Z,0.00
2022-09-04T19:14:06.354Z,0.00
2022-09-04T19:16:40.807Z,0.00
2022-09-04T19:19:17.861Z,0.00
2022-09-04T19:21:57.794Z,0.00
2022-09-04T19:24:31.445Z,0.00
2022-09-04T19:27:26.767Z,0.00
2022-09-04T19:30:09.834Z,0.00
2022-09-04T19:33:11.530Z,0.00
2022-09-04T19:35:44.261Z,0.00
2022-09-04T19:45:22.075Z,0.00
2022-09-04T19:46:00.061Z,0.00
2022-09-04T19:46:15.287Z,0.00
2022-09-04T19:47:02.136Z,0.00
2022-09-04T19:53:19.804Z,0.00
2022-09-04T19:53:31.770Z,0.25
2022-09-04T19:55:50.484Z,0.00
2022-09-04T19:58:22.551Z,0.00
2022-09-04T20:01:03.412Z,0.00
2022-09-04T20:03:39.866Z,0.00
2022-09-04T20:06:31.397Z,0.00
2022-09-04T20:09:12.683Z,0.00
2022-09-04T20:11:52.046Z,0.00
2022-09-04T20:14:22.042Z,0.00
2022-09-04T20:16:58.616Z,0.00
2022-09-04T20:19:42.246Z,0.00
2022-09-04T20:22:33.122Z,0.00
2022-09-04T20:25:28.343Z,0.00
2022-09-04T20:28:33.568Z,0.00
2022-09-04T20:31:35.401Z,0.00
2022-09-04T20:34:23.474Z,0.00
2022-09-04T20:37:02.960Z,0.00
2022-09-04T20:39:49.276Z,0.00
2022-09-04T20:42:27.099Z,0.00
2022-09-04T20:46:51.370Z,0.00
2022-09-04T20:52:42.470Z,0.00
2022-09-04T20:53:00.568Z,0.00
2022-09-04T20:54:29.071Z,0.00
2022-09-04T21:01:13.643Z,0.00
2022-09-04T21:03:15.016Z,0.00
2022-09-04T21:03:35.302Z,0.00
2022-09-04T21:06:27.385Z,0.00
2022-09-04T21:09:15.798Z,0.00
2022-09-04T21:11:55.110Z,0.00
2022-09-04T21:14:44.556Z,0.25
2022-09-04T21:17:48.269Z,0.00
2022-09-04T21:20:36.187Z,0.00
2022-09-04T21:23:25.849Z,0.00
2022-09-04T21:26:02.585Z,0.00
2022-09-04T21:28:35.683Z,0.00
2022-09-04T21:31:11.369Z,0.00
2022-09-04T21:33:41.835Z,0.00
2022-09-04T21:36:37.201Z,0.00
2022-09-04T21:39:11.657Z,0.00
2022-09-04T21:42:00.326Z,0.00
2022-09-04T21:44:43.395Z,0.00
2022-09-04T21:47:22.600Z,0.00
2022-09-04T21:49:55.492Z,0.00
2022-09-04T21:52:38.195Z,1.00
2022-09-04T21:57:17.701Z,0.00
2022-09-04T22:02:27.808Z,1.00
2022-09-04T22:02:43.252Z,0.00
2022-09-04T22:04:23.630Z,0.00
2022-09-04T22:07:57.664Z,0.00
2022-09-04T22:13:31.196Z,0.00
2022-09-04T22:13:43.864Z,0.00
2022-09-04T22:16:00.353Z,0.00
2022-09-04T22:19:16.509Z,0.00
2022-09-04T22:21:49.994Z,0.00
2022-09-04T22:24:37.883Z,0.00
2022-09-04T22:27:37.760Z,0.00
2022-09-04T22:30:24.743Z,0.50
2022-09-04T22:33:00.124Z,0.00
2022-09-04T22:35:35.928Z,0.00
2022-09-04T22:38:18.110Z,0.00
2022-09-04T22:40:56.317Z,2.00
2022-09-04T22:43:28.945Z,0.00
2022-09-04T22:46:30.312Z,0.00
2022-09-04T22:49:24.363Z,0.00
2022-09-04T22:52:20.304Z,0.00
2022-09-04T22:54:56.401Z,0.00
2022-09-04T22:57:28.918Z,0.00
2022-09-04T23:00:01.355Z,0.00
2022-09-04T23:03:04.077Z,0.00
2022-09-04T23:05:27.748Z,0.00
2022-09-04T23:13:53.292Z,0.00
2022-09-04T23:14:02.316Z,0.00
2022-09-04T23:14:13.471Z,0.00
2022-09-04T23:16:55.930Z,0.00
2022-09-04T23:24:56.531Z,0.00
2022-09-04T23:26:42.856Z,0.00
2022-09-04T23:26:53.814Z,1.00
2022-09-04T23:28:50.228Z,0.25
2022-09-04T23:31:40.548Z,0.00
2022-09-04T23:34:28.421Z,0.00
2022-09-04T23:37:13.424Z,0.00
2022-09-04T23:39:44.553Z,0.25
2022-09-04T23:42:20.496Z,0.00
2022-09-04T23:44:59.385Z,0.00
2022-09-04T23:47:49.613Z,0.00
2022-09-04T23:50:37.224Z,0.00
2022-09-04T23:53:14.051Z,0.00
2022-09-04T23:55:49.354Z,0.00
2022-09-04T23:58:47.239Z,0.00
